Airfield :
LOGIN :

Register | Disclaimer

   EN    FR    IT 

 










Legend :    VFR   Marginal VFR   IFR   Intensive IFR   Very Intensive IFR
Visi :
Ceiling :
>= 8 km
>= 3000ft
5 to 8 km
1000 to 3000 ft
1500m to 5 km
500 to 1000 ft
800 to 1500m
200 to 500 ft
< 800m
< 200 ft
Symbols :   Thunderstorms  Fog  Heavy snow  Heavy precipitations  Wind > 20 kt
SIGMETs :     Misc.  Thunderstorms  Icing  Turbulence  Mountain Waves  Volcanic Ashes







- Airport Elevation : 194 ft
- IATA code : LME
- Download approach charts


LFRM - Le Mans

CURRENT METAR :
  • 160730Z AUTO VRB03KT 1000 BR OVC002 12/11 Q1017 BECMG CAVOK

EXPIRED METARs :
  • 160700Z AUTO VRB02KT 9999 OVC003 11/10 Q1017 TEMPO 4000 BR BECMG NSC
  • 160630Z AUTO 16002KT 9999 BKN005 OVC009 10/09 Q1017 TEMPO 4000 BR BECMG NSC
  • 160600Z AUTO 00000KT 9999 BKN010 10/09 Q1016 TEMPO 4000 BR
  • 160530Z AUTO 00000KT CAVOK 10/08 Q1016 TEMPO 4000 BR BKN007
  • 160500Z AUTO VRB01KT CAVOK 11/09 Q1016

TAF AMD TAF LFRM
Valid from the 16 at 07:00 until the 17 at 06:00 UTC


160712Z 1607/1706 VRB03KT CAVOK
TEMPO 1607/1608 4000 BR BKN003
BECMG 1610/1613 24006KT
BECMG 1619/1621 VRB03KT
TEMPO 1701/1706 3000 BR BKN004
No reported NOTAMs for that airfield.



MET'MAP, your aeronautical weather chart ! - Copyright ORBIFLY December 2007 - Disclaimer

ORBIFLY MET'MAP TEAM :

Programming & Development : Alexandra Zaïnal
Concept & Development : Baudouin d'Aumeries
Co-Development & Prog : Marc-Olivier Méhu
Technical & hardware support : Manuel Goepfert

Contact : metmap@orbifly.com




SOURCES & CREDITS :

   NOAA